Forside
METAR-TAF:

METAR-TAF

Lufthavne :

Flughafen Bremen

Bremen, Tyskland

Breddekreds: 53-03N, længdekreds: 008-48E, højde: 3 m

Aktuelle vejr

Denne rapport blev lavet for 27 minutter siden, kl. 06:20 UTC
Vind 4 kt fra østnordøst
Temperatur 9°C
Fugtighed 93%
Tryk 1018 hPa
Sigt 10 km eller mere
ingen skyer under 1500m og ingen cumulonimbus

METAR: EDDW 210620Z 06004KT CAVOK 09/08 Q1018 NOSIG

Tid: 08:47 (06:47 UTC)

Vejrudsigter

Denne rapport blev lavet for 1 time og 47 minutter siden, kl. 05:00 UTC
Foreløbig gælder fra 21 på 06 UTC til 22 på 06 UTC
Vind 4 kt fra nordøst
Sigt 10 km eller mere
ingen skyer under 1500m og ingen cumulonimbus
ændring
fra 21 på 08 UTC til 21 på 10 UTC
Vind 5 kt fra østsydøst
ændring
fra 21 på 18 UTC til 21 på 20 UTC
Vind 3 kt fra varierende retninger
Sandsynlighed 30% :
Midlertidig
fra 22 på 00 UTC til 22 på 06 UTC
Sigt: 0700 m
tåge

TAF: EDDW 210500Z 2106/2206 05004KT CAVOK BECMG 2108/2110 11005KT BECMG 2118/2120 VRB03KT PROB30 TEMPO 2200/2206 0700 FG

Vejrobservationer og prognoser fra mere end 4000 lufthavne (METAR og TAF).

De gule og røde prikker repræsenterer de meteorologiske stationer.

Flyt musen over at se navnet på stationen.

Så klik over at se vejr observationer og prognoser.

At skifte det kort: Klik på de grønne knapper med et sort kors for at zoome ind; på den grønne knap med en bindestreg for at zoome ud; eller på de grønne pile for tilstødende kort.


METAR-TAF: